Terminal Aerodrome Forecast
Issued by NWS

Current Version | Previous Version | Text Only | Print | Product List | Glossary Off
Versions: 1 2 3 4 5 6 7 8 9 10 11 12 13 14 15 16 17 18 19

478
FTUS41 KPBZ 282101 AAB
TAFHLG
TAF AMD
KHLG 282101Z 2821/2918 33010KT P6SM SCT015 OVC025
      TEMPO 2822/2902 BKN015
     FM290200 34008KT P6SM BKN009
     FM290900 35005KT P6SM BKN015
     FM291700 36008KT P6SM SCT200=

USA.gov is the U.S. government's official web portal to all federal, state and local government web resources and services.